createdAt,value
2022-09-30T00:01:41.456Z,5.54
2022-09-30T00:04:11.424Z,5.46
2022-09-30T00:06:39.980Z,5.51
2022-09-30T00:09:11.541Z,5.54
2022-09-30T00:11:42.320Z,5.54
2022-09-30T00:14:14.704Z,5.50
2022-09-30T00:16:43.807Z,5.42
2022-09-30T00:19:13.868Z,5.43
2022-09-30T00:21:42.527Z,5.41
2022-09-30T00:24:11.287Z,5.39
2022-09-30T00:26:42.088Z,5.32
2022-09-30T00:29:11.057Z,5.26
2022-09-30T00:31:39.791Z,5.34
2022-09-30T00:34:08.943Z,5.26
2022-09-30T00:36:41.759Z,5.13
2022-09-30T00:39:11.507Z,5.05
2022-09-30T00:41:41.678Z,5.08
2022-09-30T00:44:51.127Z,5.02
2022-09-30T00:47:37.610Z,4.97
2022-09-30T00:50:12.346Z,4.83
2022-09-30T00:52:40.601Z,4.90
2022-09-30T00:55:11.818Z,4.87
2022-09-30T00:57:42.563Z,4.79
2022-09-30T01:00:11.561Z,4.82
2022-09-30T01:02:40.337Z,4.76
2022-09-30T01:05:10.337Z,4.80
2022-09-30T01:07:38.959Z,4.66
2022-09-30T01:10:08.069Z,4.61
2022-09-30T01:12:36.654Z,4.60
2022-09-30T01:15:09.984Z,4.57
2022-09-30T01:17:42.887Z,4.54
2022-09-30T01:20:29.801Z,4.47
2022-09-30T01:23:05.714Z,4.55
2022-09-30T01:25:55.922Z,4.58
2022-09-30T01:28:52.234Z,4.62
2022-09-30T01:31:31.835Z,4.64
2022-09-30T01:34:04.767Z,4.70
2022-09-30T01:36:43.438Z,4.70
2022-09-30T01:39:19.940Z,4.72
2022-09-30T01:41:53.290Z,4.74
2022-09-30T01:44:26.345Z,4.72
2022-09-30T01:46:58.260Z,4.72
2022-09-30T01:49:32.026Z,4.92
2022-09-30T01:52:04.133Z,4.84
2022-09-30T01:54:35.337Z,4.92
2022-09-30T01:57:05.205Z,4.88
2022-09-30T01:59:35.361Z,4.82
2022-09-30T02:02:08.453Z,4.86
2022-09-30T02:04:40.742Z,4.79
2022-09-30T02:07:12.038Z,4.85
2022-09-30T02:09:43.082Z,4.85
2022-09-30T02:12:14.989Z,4.90
2022-09-30T02:14:46.050Z,4.97
2022-09-30T02:17:17.253Z,4.97
2022-09-30T02:19:46.939Z,4.89
2022-09-30T02:22:17.061Z,4.84
2022-09-30T02:24:47.459Z,4.81
2022-09-30T02:27:18.537Z,4.89
2022-09-30T02:29:50.415Z,5.01
2022-09-30T02:32:22.508Z,5.00
2022-09-30T02:34:52.794Z,4.98
2022-09-30T02:37:22.466Z,4.95
2022-09-30T02:39:53.012Z,5.02
2022-09-30T02:42:23.165Z,5.14
2022-09-30T02:44:52.115Z,5.17
2022-09-30T02:47:26.946Z,5.06
2022-09-30T02:49:58.802Z,4.74
2022-09-30T02:52:29.439Z,4.71
2022-09-30T02:55:04.368Z,4.67
2022-09-30T02:57:38.174Z,4.65
2022-09-30T03:00:12.529Z,4.67
2022-09-30T03:02:43.048Z,4.65
2022-09-30T03:05:11.830Z,4.63
2022-09-30T03:07:40.266Z,4.67
2022-09-30T03:10:14.801Z,4.58
2022-09-30T03:12:48.537Z,4.58
2022-09-30T03:15:26.543Z,4.44
2022-09-30T03:18:07.051Z,4.66
2022-09-30T03:20:43.116Z,4.70
2022-09-30T03:23:22.647Z,4.67
2022-09-30T03:25:55.268Z,4.83
2022-09-30T03:28:26.724Z,4.86
2022-09-30T03:31:00.998Z,4.87
2022-09-30T03:33:34.226Z,4.84
2022-09-30T03:36:04.116Z,5.00
2022-09-30T03:38:40.620Z,4.97
2022-09-30T03:41:12.108Z,4.93
2022-09-30T03:43:44.440Z,5.08
2022-09-30T03:46:18.326Z,5.05
2022-09-30T03:48:48.607Z,5.08
2022-09-30T03:51:17.195Z,4.99
2022-09-30T03:53:47.284Z,4.93
2022-09-30T03:56:16.740Z,4.95
2022-09-30T03:58:45.826Z,4.84
2022-09-30T04:01:21.883Z,4.82
2022-09-30T04:03:53.296Z,4.61
2022-09-30T04:06:24.775Z,4.57
2022-09-30T04:08:54.286Z,4.61
2022-09-30T04:11:23.265Z,4.66
2022-09-30T04:13:54.349Z,4.54
2022-09-30T04:16:22.899Z,4.68
2022-09-30T04:18:52.994Z,4.74
2022-09-30T04:21:21.604Z,4.74
2022-09-30T04:23:50.721Z,4.56
2022-09-30T04:26:20.660Z,4.52
2022-09-30T04:28:49.416Z,4.63
2022-09-30T04:31:21.837Z,4.82
2022-09-30T04:33:51.921Z,4.72
2022-09-30T04:36:22.270Z,4.75
2022-09-30T04:38:51.480Z,4.66
2022-09-30T04:41:20.045Z,4.53
2022-09-30T04:43:49.682Z,4.38
2022-09-30T04:46:18.755Z,4.52
2022-09-30T04:48:47.882Z,4.39
2022-09-30T04:51:16.767Z,4.38
2022-09-30T04:53:46.879Z,4.41
2022-09-30T04:56:17.024Z,4.45
2022-09-30T04:58:46.602Z,4.36
2022-09-30T05:01:16.894Z,4.32
2022-09-30T05:03:45.714Z,4.36
2022-09-30T05:06:15.021Z,4.36
2022-09-30T05:08:45.966Z,4.25
2022-09-30T05:11:18.891Z,4.29
2022-09-30T05:13:48.052Z,4.30
2022-09-30T05:16:16.836Z,4.56
2022-09-30T05:18:47.316Z,4.54
2022-09-30T05:21:16.239Z,4.48
2022-09-30T05:23:45.792Z,4.54
2022-09-30T05:26:14.411Z,4.52
2022-09-30T05:28:46.351Z,4.49
2022-09-30T05:31:14.833Z,4.43
2022-09-30T05:33:51.704Z,4.62
2022-09-30T05:36:23.159Z,4.77
2022-09-30T05:38:53.211Z,4.70
2022-09-30T05:41:22.369Z,4.53
2022-09-30T05:44:01.771Z,4.51
2022-09-30T05:46:30.573Z,4.47
2022-09-30T05:48:59.196Z,4.55
2022-09-30T05:51:27.990Z,4.60
2022-09-30T05:53:56.465Z,4.93
2022-09-30T05:56:24.967Z,4.97
2022-09-30T05:58:55.076Z,4.97
2022-09-30T06:01:23.985Z,5.08
2022-09-30T06:03:53.011Z,5.12
2022-09-30T06:06:21.970Z,5.17
2022-09-30T06:08:51.170Z,5.14
2022-09-30T06:11:20.416Z,5.23
2022-09-30T06:13:49.614Z,5.31
2022-09-30T06:16:20.162Z,5.22
2022-09-30T06:18:48.635Z,5.17
2022-09-30T06:21:18.151Z,4.98
2022-09-30T06:23:46.999Z,5.18
2022-09-30T06:26:16.310Z,5.21
2022-09-30T06:28:45.464Z,5.24
2022-09-30T06:31:15.063Z,5.11
2022-09-30T06:33:44.926Z,4.91
2022-09-30T06:36:13.631Z,4.67
2022-09-30T06:38:42.830Z,4.97
2022-09-30T06:41:11.252Z,5.14
2022-09-30T06:43:46.945Z,4.98
2022-09-30T06:46:30.290Z,4.89
2022-09-30T06:49:11.615Z,4.69
2022-09-30T06:51:42.489Z,4.84
2022-09-30T06:54:11.450Z,4.80
2022-09-30T06:56:39.673Z,4.82
2022-09-30T06:59:08.775Z,5.00
2022-09-30T07:01:37.473Z,5.00
2022-09-30T07:04:10.254Z,5.07
2022-09-30T07:06:39.681Z,5.30
2022-09-30T07:09:09.539Z,5.32
2022-09-30T07:11:38.896Z,5.05
2022-09-30T07:14:07.380Z,5.09
2022-09-30T07:16:36.094Z,5.17
2022-09-30T07:19:05.173Z,5.28
2022-09-30T07:21:35.228Z,5.35
2022-09-30T07:24:03.776Z,5.37
2022-09-30T07:26:33.185Z,5.59
2022-09-30T07:29:03.408Z,5.78
2022-09-30T07:31:34.602Z,5.87
2022-09-30T07:34:04.363Z,5.98
2022-09-30T07:36:37.225Z,5.88
2022-09-30T07:39:07.070Z,5.83
2022-09-30T07:41:36.904Z,5.64
2022-09-30T07:44:06.902Z,5.71
2022-09-30T07:46:36.726Z,5.76
2022-09-30T07:49:09.077Z,6.02
2022-09-30T07:51:39.927Z,6.29
2022-09-30T07:54:09.577Z,6.18
2022-09-30T07:57:08.208Z,6.25
2022-09-30T07:59:28.523Z,6.46
2022-09-30T08:01:56.913Z,6.65
2022-09-30T08:04:25.915Z,6.72
2022-09-30T08:06:56.859Z,6.66
2022-09-30T08:09:26.126Z,6.68
2022-09-30T08:11:54.846Z,6.86
2022-09-30T08:14:24.437Z,6.97
2022-09-30T08:16:53.387Z,6.84
2022-09-30T08:19:22.470Z,6.98
2022-09-30T08:21:53.263Z,6.76
2022-09-30T08:24:23.485Z,6.78
2022-09-30T08:26:52.814Z,6.89
2022-09-30T08:29:42.709Z,7.17
2022-09-30T08:32:09.502Z,7.17
2022-09-30T08:34:37.882Z,7.38
2022-09-30T08:37:09.549Z,7.52
2022-09-30T08:39:40.126Z,7.88
2022-09-30T08:42:48.377Z,7.97
2022-09-30T08:45:23.746Z,8.17
2022-09-30T08:47:56.400Z,8.34
2022-09-30T08:50:26.687Z,8.09
2022-09-30T08:52:57.381Z,7.93
2022-09-30T08:55:28.183Z,7.93
2022-09-30T08:57:57.605Z,7.93
2022-09-30T09:00:26.595Z,8.10
2022-09-30T09:02:56.759Z,7.86
2022-09-30T09:05:33.685Z,7.73
2022-09-30T09:08:05.134Z,7.87
2022-09-30T09:10:41.259Z,7.86
2022-09-30T09:13:16.018Z,8.06
2022-09-30T09:15:51.156Z,8.19
2022-09-30T09:18:32.085Z,8.04
2022-09-30T09:21:01.084Z,8.49
2022-09-30T09:23:29.428Z,8.43
2022-09-30T09:26:00.297Z,8.66
2022-09-30T09:28:33.888Z,8.42
2022-09-30T09:31:03.240Z,8.40
2022-09-30T09:33:33.046Z,8.30
2022-09-30T09:36:09.288Z,8.43
2022-09-30T09:38:41.576Z,8.43
2022-09-30T09:41:17.320Z,8.42
2022-09-30T09:43:53.089Z,8.55
2022-09-30T09:46:24.879Z,8.51
2022-09-30T09:49:21.673Z,8.64
2022-09-30T09:51:50.776Z,8.59
2022-09-30T09:54:20.795Z,8.82
2022-09-30T09:56:55.004Z,9.16
2022-09-30T09:59:24.120Z,9.19
2022-09-30T10:01:54.407Z,9.33
2022-09-30T10:04:24.541Z,9.22
2022-09-30T10:06:54.578Z,9.28
2022-09-30T10:09:33.810Z,9.24
2022-09-30T10:12:29.269Z,9.75
2022-09-30T10:15:02.204Z,9.55
2022-09-30T10:17:33.142Z,9.53
2022-09-30T10:20:04.840Z,9.19
2022-09-30T10:22:33.453Z,9.31
2022-09-30T10:25:22.882Z,9.49
2022-09-30T10:27:57.404Z,9.52
2022-09-30T10:30:36.364Z,9.50
2022-09-30T10:33:05.032Z,9.68
2022-09-30T10:35:33.782Z,9.76
2022-09-30T10:38:02.891Z,9.87
2022-09-30T10:40:31.299Z,10.06
2022-09-30T10:43:00.872Z,10.25
2022-09-30T10:45:31.481Z,10.38
2022-09-30T10:47:59.588Z,10.57
2022-09-30T10:50:28.729Z,10.87
2022-09-30T10:52:58.177Z,11.04
2022-09-30T10:55:32.880Z,11.01
2022-09-30T10:58:22.467Z,11.13
2022-09-30T11:00:51.616Z,11.28
2022-09-30T11:03:21.873Z,11.71
2022-09-30T11:05:51.326Z,11.61
2022-09-30T11:08:21.250Z,11.69
2022-09-30T11:10:52.572Z,11.73
2022-09-30T11:13:25.688Z,11.81
2022-09-30T11:15:59.423Z,11.90
2022-09-30T11:18:31.280Z,12.02
2022-09-30T11:21:02.103Z,11.74
2022-09-30T11:23:32.321Z,11.60
2022-09-30T11:26:03.676Z,11.51
2022-09-30T11:28:40.749Z,11.54
2022-09-30T11:31:14.758Z,11.51
2022-09-30T11:33:49.926Z,11.74
2022-09-30T11:36:22.620Z,11.77
2022-09-30T11:39:05.133Z,12.05
2022-09-30T11:41:35.030Z,12.12
2022-09-30T11:44:10.378Z,12.48
2022-09-30T11:47:17.138Z,12.50
2022-09-30T11:49:55.678Z,12.52
2022-09-30T11:52:27.588Z,12.39
2022-09-30T11:55:06.587Z,12.52
2022-09-30T11:57:38.480Z,12.62
2022-09-30T12:00:11.699Z,12.77
2022-09-30T12:02:41.148Z,12.69
2022-09-30T12:05:12.238Z,12.66
2022-09-30T12:07:44.295Z,12.69
2022-09-30T12:10:22.887Z,12.93
2022-09-30T12:12:53.972Z,13.01
2022-09-30T12:15:26.419Z,12.94
2022-09-30T12:17:59.921Z,13.17
2022-09-30T12:20:30.379Z,13.29
2022-09-30T12:23:01.850Z,13.27
2022-09-30T12:25:32.737Z,13.36
2022-09-30T12:28:24.831Z,13.29
2022-09-30T12:31:00.160Z,13.08
2022-09-30T12:33:35.176Z,13.23
2022-09-30T12:36:22.800Z,13.23
2022-09-30T12:38:57.332Z,13.07
2022-09-30T12:41:42.822Z,13.39
2022-09-30T12:44:55.067Z,13.46
2022-09-30T12:47:36.779Z,13.60
2022-09-30T12:50:07.276Z,13.30
2022-09-30T12:52:37.427Z,13.24
2022-09-30T12:55:08.983Z,13.27
2022-09-30T12:57:41.359Z,13.38
2022-09-30T13:00:16.510Z,13.53
2022-09-30T13:02:48.456Z,13.27
2022-09-30T13:05:54.328Z,13.34
2022-09-30T13:08:41.611Z,13.46
2022-09-30T13:11:33.527Z,13.51
2022-09-30T13:14:12.902Z,13.55
2022-09-30T13:17:01.600Z,13.59
2022-09-30T13:19:36.653Z,13.33
2022-09-30T13:22:54.413Z,13.23
2022-09-30T13:25:22.819Z,13.17
2022-09-30T13:27:53.992Z,13.23
2022-09-30T13:30:43.327Z,13.03
2022-09-30T13:33:32.134Z,13.11
2022-09-30T13:36:10.587Z,13.06
2022-09-30T13:38:41.263Z,13.06
2022-09-30T13:41:16.774Z,13.08
2022-09-30T13:43:46.506Z,13.25
2022-09-30T13:46:24.531Z,13.28
2022-09-30T13:48:53.790Z,13.29
2022-09-30T13:51:24.550Z,13.18
2022-09-30T13:53:54.550Z,13.07
2022-09-30T13:56:25.100Z,13.18
2022-09-30T13:59:15.968Z,13.12
2022-09-30T14:02:00.327Z,13.17
2022-09-30T14:04:36.610Z,13.42
2022-09-30T14:07:10.706Z,13.41
2022-09-30T14:09:56.321Z,13.50
2022-09-30T14:12:30.510Z,13.60
2022-09-30T14:15:27.907Z,13.41
2022-09-30T14:18:24.433Z,13.28
2022-09-30T14:21:13.637Z,13.16
2022-09-30T14:23:43.662Z,12.89
2022-09-30T14:26:21.867Z,12.92
2022-09-30T14:28:53.129Z,12.83
2022-09-30T14:31:21.951Z,12.93
2022-09-30T14:33:50.924Z,12.91
2022-09-30T14:39:14.690Z,12.83
2022-09-30T14:41:43.701Z,12.74
2022-09-30T14:44:15.956Z,12.81
2022-09-30T14:46:47.202Z,12.84
2022-09-30T14:49:17.229Z,12.88
2022-09-30T14:51:48.587Z,12.91
2022-09-30T14:54:23.100Z,12.84
2022-09-30T14:56:54.880Z,12.75
2022-09-30T14:59:27.276Z,12.69
2022-09-30T15:01:58.353Z,12.67
2022-09-30T15:04:27.938Z,12.67
2022-09-30T15:06:57.001Z,12.56
2022-09-30T15:09:31.107Z,12.48
2022-09-30T15:12:00.298Z,12.56
2022-09-30T15:14:32.934Z,12.45
2022-09-30T15:17:06.212Z,12.47
2022-09-30T15:19:35.819Z,12.42
2022-09-30T15:22:05.295Z,12.45
2022-09-30T15:24:35.535Z,12.45
2022-09-30T15:27:04.212Z,12.40
2022-09-30T15:29:33.115Z,12.34
2022-09-30T15:32:02.781Z,12.25
2022-09-30T15:34:31.530Z,12.29
2022-09-30T15:37:07.000Z,12.29
2022-09-30T15:39:56.219Z,12.17
2022-09-30T15:42:31.176Z,12.19
2022-09-30T15:45:00.457Z,12.20
2022-09-30T15:47:29.252Z,12.11
2022-09-30T15:49:57.445Z,12.04
2022-09-30T15:52:37.616Z,12.03
2022-09-30T15:55:38.828Z,11.95
2022-09-30T15:58:38.988Z,11.88
2022-09-30T16:01:21.667Z,11.81
2022-09-30T16:03:54.466Z,11.70
2022-09-30T16:06:35.828Z,11.66
2022-09-30T16:09:06.953Z,11.59
2022-09-30T16:11:36.941Z,11.52
2022-09-30T16:14:09.852Z,11.46
2022-09-30T16:16:39.822Z,11.42
2022-09-30T16:19:08.259Z,11.34
2022-09-30T16:21:45.047Z,11.28
2022-09-30T16:24:44.532Z,11.18
2022-09-30T16:27:30.489Z,11.08
2022-09-30T16:30:01.478Z,10.91
2022-09-30T16:32:31.576Z,10.98
2022-09-30T16:35:00.057Z,11.00
2022-09-30T16:37:28.308Z,10.91
2022-09-30T16:39:58.304Z,10.95
2022-09-30T16:42:27.388Z,10.84
2022-09-30T16:44:56.070Z,10.78
2022-09-30T16:47:26.765Z,10.68
2022-09-30T16:49:55.483Z,10.52
2022-09-30T16:52:24.887Z,10.31
2022-09-30T16:54:53.931Z,10.24
2022-09-30T16:57:22.268Z,10.13
2022-09-30T16:59:50.752Z,10.12
2022-09-30T17:02:19.029Z,10.02
2022-09-30T17:04:48.860Z,9.97
2022-09-30T17:07:17.655Z,9.94
2022-09-30T17:09:47.979Z,9.91
2022-09-30T17:12:16.424Z,9.76
2022-09-30T17:14:45.024Z,9.86
2022-09-30T17:17:14.154Z,9.93
2022-09-30T17:19:43.765Z,9.87
2022-09-30T17:22:13.752Z,9.68
2022-09-30T17:24:42.571Z,9.52
2022-09-30T17:27:11.441Z,9.35
2022-09-30T17:29:42.252Z,9.28
2022-09-30T17:32:11.306Z,9.16
2022-09-30T17:34:42.403Z,9.15
2022-09-30T17:37:13.607Z,9.15
2022-09-30T17:39:42.136Z,9.05
2022-09-30T17:42:44.050Z,9.05
2022-09-30T17:45:12.538Z,8.93
2022-09-30T17:47:41.744Z,8.87
2022-09-30T17:50:13.195Z,8.91
2022-09-30T17:52:43.504Z,8.75
2022-09-30T17:55:11.942Z,8.77
2022-09-30T17:57:40.348Z,8.66
2022-09-30T18:00:09.787Z,8.51
2022-09-30T18:02:38.730Z,8.28
2022-09-30T18:05:07.776Z,8.29
2022-09-30T18:07:36.335Z,8.26
2022-09-30T18:10:08.437Z,8.12
2022-09-30T18:12:36.913Z,8.01
2022-09-30T18:15:05.794Z,7.98
2022-09-30T18:17:34.299Z,7.94
2022-09-30T18:20:03.147Z,7.83
2022-09-30T18:22:31.392Z,7.85
2022-09-30T18:25:25.742Z,7.75
2022-09-30T18:27:57.832Z,7.75
2022-09-30T18:30:27.093Z,7.72
2022-09-30T18:32:56.285Z,7.63
2022-09-30T18:35:25.424Z,7.54
2022-09-30T18:37:54.056Z,7.44
2022-09-30T18:40:22.988Z,7.46
2022-09-30T18:42:58.917Z,7.36
2022-09-30T18:45:27.437Z,7.34
2022-09-30T18:47:56.824Z,7.35
2022-09-30T18:50:25.610Z,7.27
2022-09-30T18:52:54.314Z,7.15
2022-09-30T18:55:22.808Z,7.11
2022-09-30T18:57:51.625Z,7.12
2022-09-30T19:00:21.803Z,7.10
2022-09-30T19:02:50.982Z,6.94
2022-09-30T19:05:19.631Z,6.84
2022-09-30T19:07:48.079Z,6.98
2022-09-30T19:10:16.873Z,7.01
2022-09-30T19:12:45.997Z,6.98
2022-09-30T19:15:16.601Z,6.93
2022-09-30T19:17:46.951Z,6.89
2022-09-30T19:20:17.384Z,6.86
2022-09-30T19:22:51.483Z,6.79
2022-09-30T19:25:19.550Z,6.73
2022-09-30T19:27:49.590Z,6.60
2022-09-30T19:30:20.010Z,6.60
2022-09-30T19:32:51.766Z,6.68
2022-09-30T19:35:31.079Z,6.50
2022-09-30T19:38:04.506Z,6.47
2022-09-30T19:43:07.138Z,6.31
2022-09-30T19:45:35.722Z,6.32
2022-09-30T19:48:05.732Z,6.24
2022-09-30T19:50:34.872Z,6.16
2022-09-30T19:53:03.494Z,6.18
2022-09-30T19:55:40.173Z,6.18
2022-09-30T19:58:14.308Z,6.16
2022-09-30T20:00:47.072Z,6.03
2022-09-30T20:03:17.110Z,6.09
2022-09-30T20:05:45.763Z,6.06
2022-09-30T20:08:14.116Z,6.03
2022-09-30T20:10:42.546Z,5.93
2022-09-30T20:13:11.116Z,6.01
2022-09-30T20:15:51.373Z,5.86
2022-09-30T20:18:21.311Z,5.97
2022-09-30T20:20:49.748Z,5.97
2022-09-30T20:23:19.513Z,6.10
2022-09-30T20:25:48.195Z,6.14
2022-09-30T20:28:16.944Z,6.26
2022-09-30T20:30:46.192Z,6.15
2022-09-30T20:33:17.560Z,6.31
2022-09-30T20:35:48.896Z,6.17
2022-09-30T20:38:25.040Z,6.12
2022-09-30T20:40:56.983Z,6.03
2022-09-30T20:43:28.278Z,5.88
2022-09-30T20:45:59.911Z,5.84
2022-09-30T20:48:32.696Z,5.90
2022-09-30T20:51:07.392Z,5.79
2022-09-30T20:53:39.774Z,5.72
2022-09-30T20:56:09.633Z,5.65
2022-09-30T20:58:38.530Z,5.67
2022-09-30T21:01:08.881Z,5.69
2022-09-30T21:03:37.610Z,5.65
2022-09-30T21:06:08.290Z,5.49
2022-09-30T21:08:39.049Z,5.53
2022-09-30T21:11:07.705Z,5.49
2022-09-30T21:13:38.451Z,5.39
2022-09-30T21:16:08.759Z,5.45
2022-09-30T21:18:37.294Z,5.39
2022-09-30T21:21:07.473Z,5.36
2022-09-30T21:23:38.357Z,5.31
2022-09-30T21:26:07.715Z,5.42
2022-09-30T21:28:37.262Z,5.49
2022-09-30T21:31:06.377Z,5.53
2022-09-30T21:33:35.459Z,5.45
2022-09-30T21:36:05.034Z,5.34
2022-09-30T21:38:36.065Z,5.27
2022-09-30T21:41:06.114Z,5.27
2022-09-30T21:43:35.134Z,5.20
2022-09-30T21:46:04.831Z,5.18
2022-09-30T21:48:34.231Z,5.17
2022-09-30T21:51:11.911Z,5.16
2022-09-30T21:53:41.927Z,5.10
2022-09-30T21:56:15.061Z,5.05
2022-09-30T21:58:44.545Z,5.04
2022-09-30T22:01:13.629Z,5.05
2022-09-30T22:03:43.059Z,4.98
2022-09-30T22:06:12.024Z,5.04
2022-09-30T22:08:43.295Z,5.02
2022-09-30T22:11:12.665Z,4.85
2022-09-30T22:13:41.842Z,5.08
2022-09-30T22:16:11.030Z,5.17
2022-09-30T22:18:40.538Z,5.18
2022-09-30T22:21:11.038Z,5.20
2022-09-30T22:23:40.020Z,5.16
2022-09-30T22:26:11.225Z,5.16
2022-09-30T22:28:41.548Z,5.11
2022-09-30T22:31:16.638Z,4.95
2022-09-30T22:34:04.191Z,4.84
2022-09-30T22:36:49.751Z,4.88
2022-09-30T22:39:19.020Z,4.90
2022-09-30T22:41:50.722Z,4.91
2022-09-30T22:44:19.303Z,5.00
2022-09-30T22:46:48.470Z,5.07
2022-09-30T22:49:17.140Z,4.82
2022-09-30T22:51:46.877Z,4.86
2022-09-30T22:54:17.136Z,4.82
2022-09-30T22:56:46.135Z,4.79
2022-09-30T22:59:16.579Z,4.88
2022-09-30T23:01:50.472Z,4.80
2022-09-30T23:04:20.303Z,4.77
2022-09-30T23:06:52.144Z,4.75
2022-09-30T23:09:22.389Z,4.70
2022-09-30T23:11:54.772Z,4.78
2022-09-30T23:14:25.999Z,4.83
2022-09-30T23:16:54.673Z,4.88
2022-09-30T23:19:24.918Z,4.90
2022-09-30T23:21:54.112Z,4.92
2022-09-30T23:24:23.417Z,4.93
2022-09-30T23:26:52.493Z,4.87
2022-09-30T23:29:20.803Z,4.87
2022-09-30T23:31:51.121Z,4.74
2022-09-30T23:34:20.408Z,4.76
2022-09-30T23:36:49.088Z,4.87
2022-09-30T23:39:19.754Z,4.73
2022-09-30T23:41:48.245Z,4.67
2022-09-30T23:44:19.191Z,4.60
2022-09-30T23:47:02.216Z,4.77
2022-09-30T23:49:35.484Z,4.74
2022-09-30T23:52:09.218Z,4.63
2022-09-30T23:54:41.245Z,4.48
2022-09-30T23:57:10.930Z,4.52
2022-09-30T23:59:39.725Z,4.41
